Latest Weather Observations for Williamtown

IDN60901

Issued at 9:51 am EDT Monday 27 March 2017 (issued every 10 minutes, with the page automatically refreshed every 10 minutes)

About weather observations | Map of Sydney area stations | Latest observations for Sydney area | Other Formats
Station Details ID: 061078 Name: WILLIAMTOWN RAAF Lat: -32.79 Lon: 151.84 Height: 7.5 m
Data from the previous 72 hours. | See also: Recent months at Williamtown
Date/Time
EDT
Temp
°C
App
Temp
°C
Dew
Point
°C
Rel
Hum
%
Delta-T
°C
Wind Press
QNH
hPa
Press
MSL
hPa
Rain since
9am
mm
Dir  Spd
km/h
Gust
km/h
Spd
kts
Gust
kts
27/09:30am 23.4 24.7 19.3 78 2.6 NE 11 15 6 8 1016.9 1016.8 0.0
27/09:00am 21.8 23.3 19.0 84 1.8 NE 9 13 5 7 1016.7 1016.6 0.0
27/08:30am 20.7 22.8 19.0 90 1.1 NE 6 9 3 5 1016.5 1016.4 0.0
27/08:00am 18.7 21.5 17.9 95 0.5 CALM 0 0 0 0 1016.5 1016.4 0.0
27/07:30am 16.1 17.9 15.5 96 0.3 CALM 0 0 0 0 1016.2 1016.1 0.0
27/07:00am 16.4 17.6 15.8 96 0.4 SSE 4 6 2 3 1016.1 1016.0 0.0
27/06:30am 15.9 16.9 15.3 96 0.3 SSE 4 7 2 4 1016.1 1016.0 0.0
27/06:00am 16.0 17.8 15.4 96 0.3 CALM 0 0 0 0 1015.7 1015.6 0.0
27/05:30am 15.8 17.4 15.0 95 0.5 CALM 0 0 0 0 1015.6 1015.5 0.0
27/05:00am 16.1 17.8 15.3 95 0.5 CALM 0 0 0 0 1015.5 1015.4 0.0
27/04:30am 16.9 19.0 16.3 96 0.4 CALM 0 0 0 0 1015.6 1015.5 0.0
27/04:00am 16.9 19.0 16.3 96 0.4 CALM 0 0 0 0 1015.8 1015.7 0.0
27/03:30am 16.1 17.8 15.1 94 0.6 CALM 0 0 0 0 1016.2 1016.1 0.0
27/03:00am 17.0 19.1 16.2 95 0.5 CALM 0 0 0 0 1016.3 1016.2 0.0
27/02:30am 16.8 18.7 15.8 94 0.6 CALM 0 0 0 0 1016.5 1016.4 0.0
27/02:00am 17.7 20.1 16.9 95 0.5 CALM 0 0 0 0 1016.6 1016.5 0.0
27/01:30am 17.4 19.5 16.3 93 0.7 CALM 0 0 0 0 1016.9 1016.8 0.0
27/01:00am 17.9 20.2 16.8 93 0.7 CALM 0 0 0 0 1017.1 1017.0 0.0
27/12:30am 18.1 20.4 16.8 92 0.8 CALM 0 0 0 0 1017.3 1017.2 0.0
27/12:00am 18.8 21.3 17.3 91 0.9 CALM 0 0 0 0 1017.5 1017.4 0.0
 
Date/Time
EDT
Temp
°C
App
Temp
°C
Dew
Point
°C
Rel
Hum
%
Delta-T
°C
Wind Press
QNH
hPa
Press
MSL
hPa
Rain since
9am
mm
Dir  Spd
km/h
Gust
km/h
Spd
kts
Gust
kts
26/11:30pm 19.8 21.6 18.3 91 0.9 ENE 6 7 3 4 1017.7 1017.6 0.0
26/11:00pm 19.3 21.9 17.4 89 1.2 CALM 0 0 0 0 1017.8 1017.7 0.0
26/10:30pm 20.4 23.0 18.3 88 1.3 NE 2 7 1 4 1017.8 1017.7 0.0
26/10:00pm 20.6 22.3 18.4 87 1.4 ENE 7 11 4 6 1017.6 1017.5 0.0
26/09:30pm 20.9 22.2 18.5 86 1.5 ENE 9 11 5 6 1017.4 1017.3 0.0
26/09:00pm 21.3 22.3 18.7 85 1.6 ENE 11 13 6 7 1017.0 1016.9 0.0
26/08:30pm 21.6 22.7 18.8 84 1.8 ENE 11 13 6 7 1016.8 1016.7 0.0
26/08:00pm 22.0 23.2 19.0 83 1.9 ENE 11 17 6 9 1016.3 1016.2 0.0
26/07:30pm 22.3 23.0 18.9 81 2.1 ENE 13 17 7 9 1015.8 1015.7 0.0
26/07:00pm 22.9 23.3 19.1 79 2.4 E 15 20 8 11 1015.6 1015.5 0.0
26/06:30pm 23.6 23.7 19.1 76 2.9 E 17 26 9 14 1015.2 1015.1 0.0
26/06:00pm 24.3 24.4 19.1 73 3.3 E 17 24 9 13 1014.9 1014.8 0.0
26/05:30pm 24.8 24.4 19.4 72 3.5 E 20 30 11 16 1014.4 1014.3 0.0
26/05:00pm 25.2 25.1 19.6 71 3.6 E 19 26 10 14 1014.4 1014.3 0.0
26/04:30pm 25.3 25.1 19.4 70 3.8 ESE 19 24 10 13 1014.2 1014.1 0.0
26/04:00pm 25.8 26.3 20.1 71 3.7 E 17 24 9 13 1014.2 1014.1 0.0
26/03:30pm 25.6 25.7 19.9 70 3.7 ESE 19 28 10 15 1014.0 1013.9 0.0
26/03:00pm 25.4 25.3 19.5 70 3.8 ESE 19 26 10 14 1014.3 1014.2 0.0
26/02:30pm 26.0 26.1 19.9 69 4.0 ESE 19 26 10 14 1014.3 1014.2 0.0
26/02:00pm 25.8 26.7 20.8 74 3.3 SE 17 22 9 12 1014.6 1014.5 0.0
26/01:30pm 25.7 25.8 20.0 71 3.7 SE 19 26 10 14 1015.0 1014.9 0.0
26/01:00pm 25.8 26.7 20.1 71 3.7 SE 15 20 8 11 1015.4 1015.3 0.0
26/12:30pm 25.7 26.6 20.9 75 3.2 SE 17 24 9 13 1015.7 1015.6 0.0
26/12:00pm 25.6 26.9 20.2 72 3.5 SE 13 19 7 10 1015.9 1015.8 0.0
26/11:30am 25.6 26.8 19.9 70 3.7 SSE 13 17 7 9 1015.9 1015.8 0.0
26/11:00am 25.0 26.2 19.8 73 3.4 SSE 13 20 7 11 1016.0 1015.9 0.0
26/10:32am 24.3 25.5 20.0 77 2.8 SSE 13 17 7 9 1015.9 1015.8 0.0
26/10:30am 24.2 25.4 19.9 77 2.8 SE 13 17 7 9 1015.9 1015.8 0.0
26/10:19am 24.5 26.8 20.6 79 2.5 S 9 15 5 8 1015.8 1015.7 0.0
26/10:00am 24.1 26.3 20.4 80 2.4 S 9 13 5 7 1015.9 1015.8 0.0
26/09:30am 23.2 25.4 20.5 85 1.8 SW 9 13 5 7 1015.8 1015.7 0.0
26/09:00am 21.9 23.8 20.5 92 0.9 WSW 11 13 6 7 1015.5 1015.4 0.0
26/08:47am 21.1 22.7 19.9 93 0.8 WSW 11 13 6 7 1015.5 1015.4 0.0
26/08:30am 20.6 22.4 19.6 94 0.6 WSW 9 11 5 6 1015.2 1015.1 0.0
26/08:00am 20.2 22.0 19.5 96 0.4 W 9 9 5 5 1014.7 1014.6 0.0
26/07:30am 19.5 21.0 19.0 97 0.3 WNW 9 11 5 6 1014.7 1014.6 0.0
26/07:14am 19.3 20.4 18.8 97 0.3 NW 11 13 6 7 1014.3 1014.2 0.0
26/07:00am 19.0 20.2 18.3 96 0.4 WSW 9 9 5 5 1014.1 1014.0 0.0
26/06:30am 19.0 21.2 18.3 96 0.4 WSW 4 7 2 4 1013.6 1013.5 0.0
26/06:00am 18.8 20.3 18.1 96 0.4 WSW 7 7 4 4 1013.4 1013.3 0.0
26/05:30am 19.0 20.6 18.2 95 0.5 WSW 7 9 4 5 1013.2 1013.1 0.0
26/05:00am 19.3 21.9 18.3 94 0.6 WSW 2 7 1 4 1013.1 1013.0 0.0
26/04:30am 19.6 22.7 18.6 94 0.6 CALM 0 0 0 0 1013.0 1012.9 0.0
26/04:00am 19.7 21.8 18.9 95 0.5 WNW 6 7 3 4 1012.9 1012.8 0.0
26/03:30am 19.4 21.2 18.4 94 0.6 W 6 6 3 3 1013.0 1012.9 0.0
26/03:00am 19.5 22.4 18.3 93 0.7 CALM 0 0 0 0 1013.0 1012.9 0.0
26/02:30am 20.1 23.3 18.9 93 0.8 CALM 0 0 0 0 1013.1 1013.0 0.0
26/02:00am 20.2 22.6 18.9 92 0.8 WNW 4 7 2 4 1013.5 1013.4 0.0
26/01:30am 20.7 24.0 19.0 90 1.1 CALM 0 0 0 0 1013.6 1013.5 0.0
26/01:00am 21.0 24.3 19.1 89 1.2 CALM 0 2 0 1 1013.9 1013.8 0.0
26/12:30am 21.2 23.4 19.1 88 1.3 W 6 7 3 4 1014.4 1014.3 0.0
26/12:00am 21.4 23.9 19.0 86 1.5 N 4 7 2 4 1014.3 1014.2 0.0
 
Date/Time
EDT
Temp
°C
App
Temp
°C
Dew
Point
°C
Rel
Hum
%
Delta-T
°C
Wind Press
QNH
hPa
Press
MSL
hPa
Rain since
9am
mm
Dir  Spd
km/h
Gust
km/h
Spd
kts
Gust
kts
25/11:30pm 21.5 23.9 18.9 85 1.6 N 4 6 2 3 1014.6 1014.5 0.0
25/11:00pm 21.6 23.1 19.0 85 1.6 NE 9 13 5 7 1014.5 1014.4 0.0
25/10:30pm 21.5 22.9 18.7 84 1.8 ENE 9 13 5 7 1014.5 1014.4 0.0
25/10:00pm 21.4 22.9 19.0 86 1.5 ENE 9 13 5 7 1014.4 1014.3 0.0
25/09:30pm 21.5 23.1 19.1 86 1.5 E 9 13 5 7 1014.5 1014.4 0.0
25/09:00pm 21.6 22.8 19.0 85 1.6 ENE 11 15 6 8 1014.2 1014.1 0.0
25/08:30pm 21.9 22.7 19.1 84 1.8 ENE 13 17 7 9 1013.8 1013.7 0.0
25/08:00pm 22.3 22.6 18.7 80 2.3 ENE 15 22 8 12 1013.4 1013.3 0.0
25/07:30pm 22.4 23.0 18.6 79 2.4 ENE 13 19 7 10 1013.3 1013.2 0.0
25/07:00pm 22.7 23.2 18.3 76 2.8 E 13 19 7 10 1013.4 1013.3 0.0
25/06:30pm 23.2 23.7 18.3 74 3.1 ENE 13 20 7 11 1013.5 1013.4 0.0
25/06:00pm 23.6 23.2 18.0 71 3.5 ENE 17 20 9 11 1013.2 1013.1 0.0
25/05:30pm 24.5 24.2 18.2 68 4.0 ENE 17 22 9 12 1013.0 1012.9 0.0
25/05:00pm 24.5 24.1 18.0 67 4.1 ENE 17 26 9 14 1012.9 1012.8 0.0
25/04:30pm 24.7 24.6 17.9 66 4.3 ENE 15 19 8 10 1013.2 1013.1 0.0
25/04:00pm 24.7 24.2 17.7 65 4.4 ENE 17 20 9 11 1013.2 1013.1 0.0
25/03:30pm 24.4 24.7 17.9 67 4.1 ENE 13 17 7 9 1013.6 1013.5 0.0
25/03:00pm 23.5 22.8 17.3 68 3.8 ESE 17 22 9 12 1014.1 1014.0 0.0
25/02:30pm 23.8 22.8 17.5 68 3.9 ESE 19 26 10 14 1014.4 1014.3 0.0
25/02:00pm 24.3 23.4 16.8 63 4.6 ESE 17 24 9 13 1015.0 1014.9 0.0
25/01:30pm 25.0 25.8 17.2 62 4.8 WSW 9 13 5 7 1015.4 1015.3 0.0
25/01:00pm 24.5 24.4 16.0 59 5.2 NE 11 17 6 9 1016.0 1015.9 0.0
25/12:30pm 24.1 24.0 15.9 60 5.0 ENE 11 17 6 9 1016.5 1016.4 0.0
25/12:00pm 24.6 25.4 15.8 58 5.3 ENE 6 13 3 7 1016.8 1016.7 0.0
25/11:30am 23.7 23.5 15.7 61 4.8 ENE 11 15 6 8 1017.2 1017.1 0.0
25/11:00am 23.5 23.5 15.3 60 4.9 NE 9 13 5 7 1017.5 1017.4 0.0
25/10:30am 23.1 24.2 15.7 63 4.5 NE 4 9 2 5 1017.7 1017.6 0.0
25/10:00am 23.2 23.3 16.5 66 4.1 WSW 11 17 6 9 1017.5 1017.4 0.0
25/09:30am 21.8 22.7 16.5 72 3.2 WSW 7 9 4 5 1017.4 1017.3 0.0
25/09:00am 20.4 21.5 17.0 81 2.1 WSW 7 9 4 5 1017.4 1017.3 0.2
25/08:30am 19.3 21.4 18.0 92 0.8 WSW 4 9 2 5 1017.2 1017.1 0.2
25/08:00am 18.3 20.7 17.1 93 0.7 CALM 0 0 0 0 1017.1 1017.0 0.2
25/07:30am 17.7 20.1 17.1 96 0.4 CALM 0 6 0 3 1017.1 1017.0 0.2
25/07:00am 17.6 20.0 17.0 96 0.4 CALM 0 0 0 0 1017.3 1017.2 0.2
25/06:30am 17.6 20.0 17.0 96 0.4 CALM 0 0 0 0 1017.2 1017.1 0.2
25/06:00am 17.5 18.8 17.0 97 0.3 WSW 6 9 3 5 1017.1 1017.0 0.2
25/05:30am 17.2 19.1 16.6 96 0.4 WSW 2 7 1 4 1017.0 1016.9 0.2
25/05:00am 17.6 19.8 16.6 94 0.6 CALM 0 6 0 3 1016.9 1016.8 0.2
25/04:30am 18.1 20.5 17.1 94 0.6 CALM 0 0 0 0 1016.8 1016.7 0.2
25/04:00am 18.2 19.5 17.2 94 0.6 WSW 6 7 3 4 1017.1 1017.0 0.2
25/03:30am 18.0 19.6 17.0 94 0.6 WSW 4 7 2 4 1017.2 1017.1 0.2
25/03:00am 18.0 19.6 16.9 93 0.7 WSW 4 7 2 4 1017.4 1017.3 0.2
25/02:30am 17.9 19.2 17.1 95 0.5 WSW 6 7 3 4 1017.9 1017.8 0.2
25/02:00am 17.3 18.2 16.5 95 0.5 WSW 7 7 4 4 1018.2 1018.1 0.2
25/01:30am 17.3 18.3 16.3 94 0.6 WSW 6 9 3 5 1018.5 1018.4 0.2
25/01:00am 17.8 19.7 16.7 93 0.7 WSW 2 7 1 4 1018.4 1018.3 0.2
25/12:30am 18.5 20.1 17.0 91 0.9 WSW 4 7 2 4 1018.8 1018.7 0.2
25/12:00am 19.1 21.6 17.2 89 1.2 CALM 0 4 0 2 1019.2 1019.1 0.2
 
Date/Time
EDT
Temp
°C
App
Temp
°C
Dew
Point
°C
Rel
Hum
%
Delta-T
°C
Wind Press
QNH
hPa
Press
MSL
hPa
Rain since
9am
mm
Dir  Spd
km/h
Gust
km/h
Spd
kts
Gust
kts
24/11:30pm 19.3 21.7 17.1 87 1.3 CALM 0 2 0 1 1019.4 1019.3 0.2
24/11:00pm 19.8 20.6 16.4 81 2.0 WSW 7 11 4 6 1019.3 1019.2 0.2
24/10:30pm 19.6 22.3 17.7 89 1.2 CALM 0 0 0 0 1019.6 1019.5 0.2
24/10:00pm 20.0 21.9 17.6 86 1.5 SSW 4 9 2 5 1019.7 1019.6 0.2
24/09:30pm 20.4 21.4 16.8 80 2.2 ENE 7 9 4 5 1019.4 1019.3 0.2
24/09:00pm 20.5 21.6 17.1 81 2.1 ESE 7 11 4 6 1019.3 1019.2 0.2
24/08:30pm 20.0 20.6 17.8 87 1.4 ENE 11 17 6 9 1019.0 1018.9 0.2
24/08:00pm 20.5 20.5 18.1 86 1.5 E 15 20 8 11 1018.8 1018.7 0.2
24/07:30pm 20.1 19.8 17.3 84 1.7 SSW 15 20 8 11 1018.7 1018.6 0.2
24/07:00pm 20.6 20.0 17.6 83 1.8 SSW 17 20 9 11 1018.5 1018.4 0.2
24/06:30pm 21.9 21.6 17.3 75 2.8 ESE 15 20 8 11 1018.3 1018.2 0.2
24/06:00pm 22.2 21.0 17.1 73 3.1 SE 19 28 10 15 1018.2 1018.1 0.2
24/05:30pm 22.7 22.8 16.5 68 3.8 SSE 11 13 6 7 1018.0 1017.9 0.2
24/05:00pm 23.1 21.3 16.9 68 3.8 SE 22 30 12 16 1018.0 1017.9 0.2
24/04:30pm 24.2 22.6 16.5 62 4.7 SE 20 28 11 15 1017.8 1017.7 0.2
24/04:00pm 24.1 21.8 16.6 63 4.6 SE 24 32 13 17 1017.9 1017.8 0.2
24/03:30pm 23.4 21.0 17.4 69 3.7 ESE 26 32 14 17 1018.1 1018.0 0.2
24/03:00pm 24.4 22.2 16.9 63 4.6 SSE 24 32 13 17 1018.1 1018.0 0.2
24/02:30pm 23.9 21.3 16.9 65 4.3 SSE 26 32 14 17 1018.4 1018.3 0.2
24/02:00pm 24.3 21.7 16.8 63 4.6 SSE 26 33 14 18 1018.7 1018.6 0.2
24/01:30pm 24.0 21.4 16.8 64 4.4 SSE 26 32 14 17 1018.9 1018.8 0.2
24/01:00pm 23.6 21.4 16.9 66 4.1 SSE 24 30 13 16 1019.1 1019.0 0.2
24/12:30pm 23.9 20.9 16.9 65 4.3 SSE 28 37 15 20 1019.3 1019.2 0.2
24/12:00pm 23.8 21.7 16.3 63 4.6 SSE 22 30 12 16 1019.4 1019.3 0.2
24/11:30am 23.5 21.7 17.9 71 3.5 SE 24 30 13 16 1019.5 1019.4 0.0
24/11:00am 23.3 22.1 17.5 70 3.6 SE 20 28 11 15 1019.6 1019.5 0.0
24/10:30am 21.7 23.9 19.3 86 1.5 WSW 6 9 3 5 1019.4 1019.3 0.0
24/10:00am 20.7 22.4 19.4 92 0.8 WSW 9 13 5 7 1019.4 1019.3 0.0

Latest Capital City Observations: Canberra | Sydney | Melbourne | Brisbane | Adelaide | Perth | Hobart | Darwin

Other Formats:

Comma delimited format used in spreadsheet applications
http://www.bom.gov.au/fwo/IDN60901/IDN60901.94776.axf

JavaScript Object Notation format (JSON) in row-major order
http://www.bom.gov.au/fwo/IDN60901/IDN60901.94776.json